Time;durP1;ratioP1;P1;durP2;ratioP2;P2;SDS_P1;SDS_P2;PMS_P1;PMS_P2;Temp;Humidity;BMP_temperature;BMP_pressure;BME280_temperature;BME280_humidity;BME280_pressure;Samples;Min_cycle;Max_cycle;Signal;HPM_P1;HPM_P2
2021/09/22 00:01:24;;;;;;;5.28;3.13;;;;;;;15.41;56.19;99508.06;5093993;28;20036;-90
2021/09/22 00:03:51;;;;;;;5.13;3.17;;;;;;;15.23;57.04;99498.88;5094384;28;20044;-93
2021/09/22 00:06:17;;;;;;;4.75;3.28;;;;;;;15.15;57.56;99508.97;5096153;28;20097;-91
2021/09/22 00:08:43;;;;;;;4.97;3.30;;;;;;;15.16;57.48;99498.22;5095510;28;20044;-92
2021/09/22 00:11:09;;;;;;;5.38;3.22;;;;;;;15.18;57.49;99490.13;5095188;28;20043;-92
2021/09/22 00:13:35;;;;;;;4.70;2.80;;;;;;;15.06;57.38;99485.19;5094615;28;20074;-92
2021/09/22 00:16:01;;;;;;;5.93;3.13;;;;;;;14.97;57.79;99472.97;5095109;28;20064;-93
2021/09/22 00:18:27;;;;;;;5.05;3.17;;;;;;;15.03;57.71;99486.16;5094677;28;20070;-94
2021/09/22 00:20:54;;;;;;;5.63;3.20;;;;;;;15.16;57.61;99494.66;5094062;28;20059;-91
2021/09/22 00:23:20;;;;;;;5.95;3.00;;;;;;;15.17;57.75;99497.28;5094462;28;20074;-92
2021/09/22 00:25:46;;;;;;;5.97;3.20;;;;;;;15.08;57.78;99494.03;5095194;28;20040;-92
2021/09/22 00:28:12;;;;;;;4.85;2.95;;;;;;;15.07;57.91;99493.19;5095596;28;20055;-93
2021/09/22 00:30:38;;;;;;;7.32;3.60;;;;;;;15.09;57.47;99485.94;5096092;28;20040;-93
2021/09/22 00:33:06;;;;;;;7.18;4.10;;;;;;;15.06;57.71;99479.81;5094307;28;20047;-92
2021/09/22 00:35:32;;;;;;;5.80;3.63;;;;;;;15.08;57.35;99481.53;5095319;28;20036;-92
2021/09/22 00:37:59;;;;;;;5.15;3.00;;;;;;;15.15;57.01;99480.38;5094972;28;20041;-91
2021/09/22 00:40:25;;;;;;;6.15;3.67;;;;;;;15.13;56.96;99474.19;5095296;28;20100;-92
2021/09/22 00:42:51;;;;;;;5.20;3.30;;;;;;;15.28;56.46;99499.59;5094604;28;20127;-93
2021/09/22 00:45:17;;;;;;;4.93;2.75;;;;;;;15.27;56.32;99479.09;5094318;28;20072;-90
2021/09/22 00:47:45;;;;;;;5.37;2.93;;;;;;;15.32;55.63;99462.84;5095095;28;20036;-91
2021/09/22 00:50:12;;;;;;;4.90;2.90;;;;;;;15.48;55.64;99482.78;5094897;28;20501;-92
2021/09/22 00:52:40;;;;;;;4.68;3.10;;;;;;;15.43;55.53;99467.81;5094323;28;20060;-92
2021/09/22 00:55:09;;;;;;;5.57;3.37;;;;;;;15.48;55.74;99481.94;5094403;28;20398;-91
2021/09/22 00:57:46;;;;;;;4.55;3.13;;;;;;;15.44;55.37;99472.25;5094409;28;20288;-90
2021/09/22 01:00:13;;;;;;;5.60;3.35;;;;;;;15.50;55.71;99478.25;5093758;28;20124;-93
2021/09/22 01:02:39;;;;;;;5.32;3.10;;;;;;;15.48;56.01;99473.88;5094473;28;20039;-92
2021/09/22 01:05:06;;;;;;;5.30;2.90;;;;;;;15.36;55.96;99468.03;5095051;28;20036;-91
2021/09/22 01:07:32;;;;;;;4.40;2.90;;;;;;;15.30;56.37;99457.53;5094242;28;20485;-94
2021/09/22 01:09:58;;;;;;;4.93;3.15;;;;;;;15.29;56.09;99453.13;5094492;28;20051;-90
2021/09/22 01:12:26;;;;;;;4.88;3.03;;;;;;;15.21;56.77;99455.19;5094748;28;20131;-91
2021/09/22 01:14:52;;;;;;;7.25;3.38;;;;;;;15.16;56.74;99436.59;5093820;28;20420;-93
2021/09/22 01:17:19;;;;;;;6.00;3.08;;;;;;;15.25;57.02;99462.19;5093941;28;20051;-93
2021/09/22 01:19:45;;;;;;;4.95;3.15;;;;;;;15.18;57.19;99456.19;5095950;28;20036;-93
2021/09/22 01:22:17;;;;;;;4.95;3.30;;;;;;;15.09;57.18;99439.53;5095615;28;20213;-91
2021/09/22 01:24:43;;;;;;;4.93;3.13;;;;;;;15.12;57.00;99428.72;5093991;28;20040;-91
2021/09/22 01:27:09;;;;;;;6.15;3.25;;;;;;;15.37;56.25;99455.50;5098629;28;20042;-91
2021/09/22 01:29:35;;;;;;;4.72;3.10;;;;;;;15.32;56.21;99431.56;5098324;28;20477;-92
2021/09/22 01:32:02;;;;;;;7.40;3.58;;;;;;;15.32;56.04;99434.25;5099388;28;20103;-93
2021/09/22 01:34:28;;;;;;;4.72;3.08;;;;;;;15.34;55.93;99416.31;5098728;28;20044;-90
2021/09/22 01:36:54;;;;;;;5.85;3.10;;;;;;;15.35;56.08;99425.22;5099432;28;20590;-92
2021/09/22 01:39:21;;;;;;;5.07;3.22;;;;;;;15.40;56.17;99432.16;5096323;28;20052;-91
2021/09/22 01:41:47;;;;;;;5.03;3.50;;;;;;;15.30;56.50;99432.56;5098408;28;20493;-91
2021/09/22 01:44:13;;;;;;;5.63;3.20;;;;;;;15.26;56.87;99418.38;5097826;28;20056;-94
2021/09/22 01:46:40;;;;;;;4.88;3.15;;;;;;;15.12;57.20;99412.66;5097821;28;20040;-93
2021/09/22 01:49:06;;;;;;;6.38;3.17;;;;;;;15.15;57.58;99424.13;5099693;28;20040;-94
2021/09/22 01:51:32;;;;;;;5.97;3.47;;;;;;;15.06;57.50;99407.50;5098236;28;20112;-92
2021/09/22 01:53:58;;;;;;;5.70;3.20;;;;;;;15.05;57.77;99411.09;5099492;28;20040;-94
2021/09/22 01:56:25;;;;;;;6.47;3.40;;;;;;;15.01;58.36;99421.06;5097530;28;20423;-91
2021/09/22 01:58:51;;;;;;;5.32;3.28;;;;;;;14.76;58.89;99395.09;5097654;28;20040;-93
2021/09/22 02:01:17;;;;;;;5.70;3.50;;;;;;;14.88;58.97;99417.94;5096237;28;20050;-93
2021/09/22 02:03:47;;;;;;;4.40;2.83;;;;;;;14.71;59.66;99414.94;5097671;28;20401;-93
2021/09/22 02:06:15;;;;;;;6.80;3.70;;;;;;;14.71;59.85;99420.31;5098101;28;20098;-91
2021/09/22 02:08:41;;;;;;;5.95;3.30;;;;;;;14.72;59.72;99416.69;5098965;28;20042;-91
2021/09/22 02:11:07;;;;;;;5.25;3.40;;;;;;;14.79;59.42;99420.94;5098057;28;20040;-92
2021/09/22 02:13:35;;;;;;;4.93;3.03;;;;;;;14.87;59.22;99407.25;5098218;28;20048;-93
2021/09/22 02:16:01;;;;;;;6.50;3.60;;;;;;;14.73;59.81;99397.91;5076833;28;20087;-94
2021/09/22 02:18:27;;;;;;;7.40;4.18;;;;;;;14.81;59.66;99421.72;5091182;28;20040;-93
2021/09/22 02:20:53;;;;;;;5.93;3.58;;;;;;;14.83;59.83;99433.25;5097194;28;20574;-93
2021/09/22 02:23:19;;;;;;;6.63;3.92;;;;;;;14.71;59.65;99405.09;5096092;28;20040;-91
2021/09/22 02:25:45;;;;;;;5.40;3.65;;;;;;;14.68;60.05;99410.59;5097808;28;20102;-92
2021/09/22 02:28:11;;;;;;;5.53;3.63;;;;;;;14.67;60.35;99418.66;5097324;28;20131;-92
2021/09/22 02:30:38;;;;;;;4.80;3.10;;;;;;;14.56;60.87;99410.97;5096250;28;20040;-93
2021/09/22 02:33:04;;;;;;;7.55;3.65;;;;;;;14.47;61.29;99416.59;5097332;28;20129;-92
2021/09/22 02:35:30;;;;;;;5.22;3.45;;;;;;;14.50;61.58;99432.56;5096882;28;20122;-96
2021/09/22 02:37:57;;;;;;;6.78;3.47;;;;;;;14.48;61.14;99427.25;5097318;28;20051;-94
2021/09/22 02:40:22;;;;;;;6.25;3.60;;;;;;;14.60;60.79;99422.47;5097541;28;20044;-90
2021/09/22 02:42:48;;;;;;;6.22;3.55;;;;;;;14.64;60.96;99429.44;5097640;28;20127;-94
2021/09/22 02:45:15;;;;;;;5.68;3.30;;;;;;;14.60;61.38;99435.84;5096524;28;20430;-92
2021/09/22 02:47:43;;;;;;;5.47;3.40;;;;;;;14.47;61.60;99422.81;5097573;28;20032;-92
2021/09/22 02:50:11;;;;;;;5.50;3.53;;;;;;;14.41;61.69;99428.38;5095348;28;20047;-92
2021/09/22 02:52:37;;;;;;;6.00;3.60;;;;;;;14.45;61.83;99431.84;5096546;28;20048;-92
2021/09/22 02:55:04;;;;;;;7.05;3.60;;;;;;;14.61;61.26;99440.25;5095127;28;20036;-91
2021/09/22 02:57:29;;;;;;;4.35;3.15;;;;;;;14.63;61.33;99433.06;5097833;28;20047;-93
2021/09/22 02:59:55;;;;;;;6.20;3.47;;;;;;;14.61;60.98;99424.19;5096840;28;20432;-92
2021/09/22 03:02:21;;;;;;;5.45;3.67;;;;;;;14.70;60.92;99426.56;5096377;28;20044;-92
2021/09/22 03:04:48;;;;;;;7.22;3.88;;;;;;;14.75;60.45;99413.91;5097276;28;20097;-93
2021/09/22 03:07:14;;;;;;;7.57;4.05;;;;;;;14.79;59.93;99407.53;5097489;28;20355;-95
2021/09/22 03:09:40;;;;;;;4.82;3.40;;;;;;;14.76;60.05;99399.59;5096425;28;20105;-93
2021/09/22 03:12:06;;;;;;;7.35;3.97;;;;;;;14.78;60.20;99397.75;5096030;28;20070;-94
2021/09/22 03:14:32;;;;;;;6.00;3.97;;;;;;;14.88;59.67;99403.69;5096569;28;20044;-92
2021/09/22 03:16:58;;;;;;;5.70;3.42;;;;;;;14.84;59.65;99402.91;5095697;28;20147;-94
2021/09/22 03:19:23;;;;;;;6.25;3.53;;;;;;;14.82;60.12;99403.88;5096689;28;20061;-92
2021/09/22 03:21:51;;;;;;;8.70;3.78;;;;;;;14.76;60.41;99411.16;5096413;28;20422;-92
2021/09/22 03:24:17;;;;;;;5.40;3.67;;;;;;;14.66;60.54;99403.50;5095926;28;20040;-91
2021/09/22 03:26:43;;;;;;;5.78;3.60;;;;;;;14.67;60.59;99397.25;5096019;28;20040;-93
2021/09/22 03:29:08;;;;;;;6.13;3.22;;;;;;;14.63;60.77;99399.13;5095971;28;20066;-93
2021/09/22 03:31:34;;;;;;;5.78;3.40;;;;;;;14.58;61.31;99396.63;5095534;28;20089;-91
2021/09/22 03:34:00;;;;;;;5.82;3.92;;;;;;;14.50;61.36;99382.56;5096714;28;20044;-93
2021/09/22 03:36:26;;;;;;;5.20;3.50;;;;;;;14.47;61.44;99376.47;5096702;28;20089;-93
2021/09/22 03:38:53;;;;;;;6.63;3.88;;;;;;;14.48;61.75;99379.06;5095389;28;20123;-91
2021/09/22 03:41:19;;;;;;;7.50;3.70;;;;;;;14.41;61.59;99374.00;5095968;28;20039;-91
2021/09/22 03:43:45;;;;;;;7.57;3.95;;;;;;;14.41;61.56;99357.94;5095564;28;20036;-92
2021/09/22 03:46:11;;;;;;;5.72;3.50;;;;;;;14.48;61.49;99370.16;5093834;28;20043;-93
2021/09/22 03:48:37;;;;;;;6.28;4.03;;;;;;;14.53;61.27;99371.78;5095892;28;20367;-91
2021/09/22 03:51:03;;;;;;;5.97;3.45;;;;;;;14.44;61.32;99331.06;5095397;28;20040;-91
2021/09/22 03:53:29;;;;;;;6.70;3.78;;;;;;;14.49;61.42;99343.38;5096092;28;20047;-92
2021/09/22 03:55:56;;;;;;;6.95;3.95;;;;;;;14.26;61.84;99320.06;5095601;28;20456;-92
2021/09/22 03:58:22;;;;;;;5.93;3.80;;;;;;;14.34;62.00;99341.22;5094233;28;20032;-92
2021/09/22 04:00:48;;;;;;;6.95;3.55;;;;;;;14.30;62.18;99340.44;5094166;28;20074;-92
2021/09/22 04:03:13;;;;;;;6.68;3.80;;;;;;;14.41;61.47;99340.06;5095799;28;20047;-94
2021/09/22 04:05:39;;;;;;;7.18;3.85;;;;;;;14.36;61.44;99329.53;5096447;28;20083;-91
2021/09/22 04:08:05;;;;;;;6.78;4.05;;;;;;;14.26;61.93;99332.56;5095803;28;20363;-93
2021/09/22 04:10:31;;;;;;;6.05;3.78;;;;;;;14.32;62.01;99332.34;5096924;28;20044;-92
2021/09/22 04:12:58;;;;;;;6.15;3.65;;;;;;;14.35;61.86;99334.91;5097006;28;20040;-92
2021/09/22 04:15:25;;;;;;;6.18;3.67;;;;;;;14.35;61.87;99333.09;5095264;28;20104;-93
2021/09/22 04:17:50;;;;;;;6.50;3.72;;;;;;;14.34;61.77;99317.13;5094653;28;20052;-95
2021/09/22 04:20:16;;;;;;;6.97;3.90;;;;;;;14.33;61.55;99324.28;5095001;28;20073;-91
2021/09/22 04:22:42;;;;;;;7.85;3.85;;;;;;;14.37;61.40;99331.25;5096345;28;20036;-90
2021/09/22 04:28:10;;;;;;;10.02;4.43;;;;;;;14.31;61.78;99326.16;5133298;27;20380;-94
2021/09/22 04:30:36;;;;;;;8.13;4.28;;;;;;;14.35;61.58;99329.56;5133230;27;20390;-94
2021/09/22 04:33:02;;;;;;;6.53;3.70;;;;;;;14.36;61.28;99331.34;5135277;28;20047;-95
2021/09/22 04:35:29;;;;;;;6.72;3.65;;;;;;;14.43;61.18;99335.53;5135487;27;20035;-93
2021/09/22 04:37:56;;;;;;;5.82;3.88;;;;;;;14.38;61.29;99330.34;5135049;27;20040;-94
2021/09/22 04:40:24;;;;;;;5.88;3.90;;;;;;;14.49;61.05;99346.03;5134279;28;20512;-95
2021/09/22 04:42:49;;;;;;;6.00;3.55;;;;;;;14.44;60.85;99329.25;5136325;27;20035;-95
2021/09/22 04:45:17;;;;;;;6.25;3.47;;;;;;;14.44;60.89;99339.09;5136065;27;20130;-95
2021/09/22 04:47:43;;;;;;;5.47;3.50;;;;;;;14.41;60.79;99326.69;5136477;27;20035;-94
2021/09/22 04:50:12;;;;;;;6.57;3.58;;;;;;;14.40;61.07;99338.34;5138426;27;20045;-96
2021/09/22 04:53:05;;;;;;;5.60;3.67;;;;;;;14.51;61.73;99359.38;5134456;27;20135;-94
2021/09/22 04:55:47;;;;;;;6.05;3.58;;;;;;;14.30;61.44;99315.47;5133839;27;20163;-95
2021/09/22 04:58:46;;;;;;;4.75;3.25;;;;;;;14.22;61.99;99320.22;5136489;28;20400;-95
2021/09/22 05:01:18;;;;;;;6.60;3.90;;;;;;;14.26;63.52;99364.66;5093013;28;20071;-94
2021/09/22 05:04:12;;;;;;;7.05;3.80;;;;;;;13.95;64.04;99328.22;5066057;28;20556;-94
2021/09/22 05:06:47;;;;;;;5.20;3.50;;;;;;;14.03;62.81;99318.16;5075365;28;20530;-95
2021/09/22 05:09:13;;;;;;;6.78;3.63;;;;;;;14.08;63.46;99324.22;5078210;28;20040;-94
2021/09/22 05:11:42;;;;;;;5.93;3.60;;;;;;;14.07;63.23;99329.59;5091201;28;20041;-96
2021/09/22 05:14:10;;;;;;;6.22;4.03;;;;;;;14.13;62.71;99324.94;5063845;28;20069;-96
2021/09/22 05:16:53;;;;;;;7.32;3.95;;;;;;;13.94;63.69;99289.00;5058583;28;20495;-95
2021/09/22 05:19:19;;;;;;;7.20;3.58;;;;;;;14.12;62.63;99316.97;5077682;28;20595;-96
2021/09/22 05:21:45;;;;;;;6.22;3.67;;;;;;;14.21;62.03;99315.78;5085171;28;20048;-94
2021/09/22 05:24:11;;;;;;;5.72;3.80;;;;;;;14.28;61.88;99322.69;5091165;28;20052;-95
2021/09/22 05:26:37;;;;;;;5.35;3.72;;;;;;;14.34;61.85;99317.13;5096704;28;20083;-95
2021/09/22 05:29:05;;;;;;;5.57;3.63;;;;;;;14.28;62.07;99309.31;5082254;28;20037;-93
2021/09/22 05:31:31;;;;;;;6.00;4.00;;;;;;;14.22;62.46;99304.16;5084297;28;20063;-95
2021/09/22 05:33:59;;;;;;;6.13;3.63;;;;;;;14.17;62.48;99301.63;5094295;28;20111;-96
2021/09/22 05:36:25;;;;;;;8.13;4.18;;;;;;;14.17;62.16;99291.81;5095958;28;20055;-95
2021/09/22 05:38:51;;;;;;;6.32;3.78;;;;;;;14.45;62.16;99332.81;5115008;28;20053;-96
2021/09/22 05:41:17;;;;;;;6.85;3.78;;;;;;;14.30;61.89;99307.47;5125525;28;20071;-95
2021/09/22 05:43:43;;;;;;;5.95;3.50;;;;;;;14.33;61.97;99310.00;5126992;28;20131;-96
2021/09/22 05:46:09;;;;;;;6.32;3.80;;;;;;;14.56;61.51;99330.69;5126903;28;20126;-95
2021/09/22 05:48:35;;;;;;;7.63;3.92;;;;;;;14.48;61.43;99308.63;5125637;28;20081;-96
2021/09/22 05:51:04;;;;;;;5.78;3.53;;;;;;;14.55;62.02;99313.75;5124950;28;20068;-95
2021/09/22 05:53:31;;;;;;;6.32;3.88;;;;;;;14.59;62.48;99314.50;5128202;28;20554;-95
2021/09/22 05:55:57;;;;;;;6.03;3.65;;;;;;;14.61;61.67;99303.75;5125853;28;20048;-95
2021/09/22 05:58:24;;;;;;;5.57;3.50;;;;;;;14.63;62.09;99308.13;5127613;28;20044;-95
2021/09/22 06:00:53;;;;;;;6.57;3.67;;;;;;;14.76;61.68;99319.28;5124957;28;20043;-96
2021/09/22 06:03:20;;;;;;;6.50;3.72;;;;;;;14.75;61.30;99314.88;5122147;28;20040;-96
2021/09/22 06:05:46;;;;;;;9.52;3.67;;;;;;;14.92;62.16;99335.66;5124715;28;20043;-95
2021/09/22 06:08:14;;;;;;;6.43;3.70;;;;;;;14.97;61.13;99329.22;5127258;28;20043;-95
2021/09/22 06:10:40;;;;;;;5.90;3.85;;;;;;;15.02;61.06;99338.91;5122570;28;20465;-95
2021/09/22 06:13:05;;;;;;;7.47;4.18;;;;;;;14.93;60.86;99319.53;5118789;28;20050;-92
2021/09/22 06:15:34;;;;;;;6.90;3.95;;;;;;;15.04;61.20;99334.38;5116273;27;20039;-95
2021/09/22 06:18:00;;;;;;;6.35;3.92;;;;;;;15.19;61.10;99344.53;5120793;28;20050;-93
2021/09/22 06:20:26;;;;;;;5.97;4.15;;;;;;;15.11;60.92;99319.81;5121921;28;20052;-95
2021/09/22 06:22:52;;;;;;;8.15;4.05;;;;;;;15.22;60.10;99320.28;5121769;28;20059;-94
2021/09/22 06:25:19;;;;;;;6.25;3.78;;;;;;;15.49;60.41;99347.00;5123827;28;20063;-94
2021/09/22 06:27:45;;;;;;;6.40;3.80;;;;;;;15.54;60.06;99336.97;5121176;28;20043;-94
2021/09/22 06:30:13;;;;;;;6.65;3.92;;;;;;;15.61;58.91;99323.28;5123288;27;20050;-93
2021/09/22 06:32:40;;;;;;;7.07;3.77;;;;;;;15.87;58.27;99347.34;5121334;28;20477;-95
2021/09/22 06:35:07;;;;;;;5.50;3.83;;;;;;;15.83;58.01;99319.78;5124956;28;20047;-95
2021/09/22 06:37:34;;;;;;;6.35;3.58;;;;;;;16.05;57.69;99340.34;5124434;28;20039;-95
2021/09/22 06:39:59;;;;;;;6.90;3.88;;;;;;;16.27;56.70;99360.03;5124069;28;20047;-95
2021/09/22 06:42:27;;;;;;;5.68;3.88;;;;;;;16.11;56.95;99338.34;5122401;28;20054;-94
2021/09/22 06:44:59;;;;;;;8.30;4.13;;;;;;;16.23;57.57;99323.53;5122790;28;20051;-96
2021/09/22 06:47:25;;;;;;;7.55;3.97;;;;;;;16.42;57.10;99339.75;5124537;28;20051;-96
2021/09/22 06:49:53;;;;;;;6.53;4.20;;;;;;;16.42;55.93;99315.59;5122525;28;20047;-94
2021/09/22 06:52:49;;;;;;;5.85;3.80;;;;;;;16.55;56.43;99314.13;5123204;28;20063;-94
2021/09/22 06:55:20;;;;;;;5.88;3.97;;;;;;;16.70;54.96;99319.75;5121225;28;20047;-94
2021/09/22 06:57:48;;;;;;;6.15;3.67;;;;;;;16.90;55.66;99319.81;5122323;28;20032;-94
2021/09/22 07:00:17;;;;;;;6.60;4.43;;;;;;;16.99;55.25;99319.38;5119841;28;20092;-95
2021/09/22 07:02:43;;;;;;;6.40;3.92;;;;;;;17.27;54.69;99338.78;5121008;28;20096;-94
2021/09/22 07:05:11;;;;;;;8.10;4.20;;;;;;;17.11;54.53;99331.41;5119493;27;20123;-95
2021/09/22 07:07:39;;;;;;;7.40;4.43;;;;;;;17.32;54.83;99310.72;5122624;28;20476;-95
2021/09/22 07:10:06;;;;;;;6.32;4.10;;;;;;;17.52;53.79;99311.63;5123442;28;20062;-94
2021/09/22 07:12:32;;;;;;;6.80;4.13;;;;;;;17.29;54.03;99316.25;5121338;28;20520;-96
2021/09/22 07:15:00;;;;;;;6.20;3.83;;;;;;;17.48;53.54;99334.22;5122792;28;20047;-95
2021/09/22 07:17:27;;;;;;;8.57;4.60;;;;;;;17.10;53.78;99315.34;5120800;28;20110;-95
2021/09/22 07:19:53;;;;;;;7.15;4.50;;;;;;;17.44;53.86;99326.31;5121217;28;20047;-95
2021/09/22 07:22:19;;;;;;;5.90;4.00;;;;;;;17.41;52.37;99296.00;5120567;28;20039;-95
2021/09/22 07:24:48;;;;;;;6.03;4.28;;;;;;;17.71;51.46;99303.56;5123239;28;20082;-95
2021/09/22 07:27:15;;;;;;;6.07;3.95;;;;;;;17.79;52.41;99304.09;5122386;28;20047;-96
2021/09/22 07:29:41;;;;;;;6.40;4.15;;;;;;;17.86;51.90;99301.03;5122135;28;20066;-95
2021/09/22 07:32:08;;;;;;;6.75;4.00;;;;;;;17.92;51.95;99312.47;5120717;28;20130;-96
2021/09/22 07:34:35;;;;;;;6.97;3.90;;;;;;;18.08;50.74;99316.13;5121891;28;20405;-92
2021/09/22 07:37:07;;;;;;;7.72;4.40;;;;;;;18.14;51.19;99331.13;5122264;28;20050;-95
2021/09/22 07:39:33;;;;;;;6.28;3.85;;;;;;;18.05;51.08;99303.72;5112974;28;20039;-94
2021/09/22 07:41:59;;;;;;;5.15;3.70;;;;;;;18.23;51.11;99325.28;5122698;28;20050;-95
2021/09/22 07:44:25;;;;;;;7.25;4.05;;;;;;;18.55;51.21;99331.75;5122963;28;20096;-94
2021/09/22 07:46:51;;;;;;;6.57;4.00;;;;;;;18.55;50.29;99296.72;5123229;28;20097;-95
2021/09/22 07:49:18;;;;;;;6.07;3.63;;;;;;;18.62;49.83;99303.53;5120007;28;20126;-96
2021/09/22 07:51:47;;;;;;;7.05;4.18;;;;;;;18.70;50.16;99330.09;5123219;28;20061;-95
2021/09/22 07:54:12;;;;;;;;;;;;;;;18.52;50.89;99333.72;5118373;28;20047;-95
2021/09/22 07:56:39;;;;;;;6.15;3.88;;;;;;;18.57;50.09;99311.00;5119668;28;20349;-95
2021/09/22 07:59:04;;;;;;;6.53;4.50;;;;;;;18.48;50.05;99324.94;5118260;28;20043;-94
2021/09/22 08:01:31;;;;;;;6.88;4.50;;;;;;;18.46;50.18;99316.94;5117326;28;20084;-94
2021/09/22 08:03:57;;;;;;;5.78;4.05;;;;;;;18.65;49.47;99316.88;5120195;28;20036;-95
2021/09/22 08:06:24;;;;;;;6.53;3.97;;;;;;;18.76;50.63;99319.00;5119726;28;20050;-94
2021/09/22 08:08:51;;;;;;;6.85;4.40;;;;;;;18.89;49.30;99338.13;5117894;28;20069;-95
2021/09/22 08:11:19;;;;;;;8.27;4.38;;;;;;;18.94;49.37;99325.28;5117711;28;20036;-95
2021/09/22 08:13:45;;;;;;;5.72;3.80;;;;;;;18.92;48.63;99327.19;5116878;28;20070;-94
2021/09/22 08:16:11;;;;;;;6.07;3.80;;;;;;;19.17;48.13;99342.94;5115375;28;20484;-94
2021/09/22 08:18:37;;;;;;;5.75;3.47;;;;;;;19.14;47.63;99326.06;5116884;28;20039;-95
2021/09/22 08:21:03;;;;;;;7.00;3.95;;;;;;;19.18;46.82;99322.25;5118256;28;20043;-94
2021/09/22 08:23:30;;;;;;;6.65;3.90;;;;;;;19.30;47.68;99318.91;5116885;28;20047;-95
2021/09/22 08:25:56;;;;;;;6.20;3.92;;;;;;;19.24;47.83;99319.22;5116094;28;20063;-95
2021/09/22 08:28:22;;;;;;;5.70;3.92;;;;;;;19.55;48.94;99329.19;5118122;28;20043;-95
2021/09/22 08:30:48;;;;;;;5.28;3.67;;;;;;;19.13;48.03;99314.41;5117094;28;20089;-94
2021/09/22 08:33:15;;;;;;;5.68;3.53;;;;;;;19.47;47.67;99308.06;5116925;28;20043;-94
2021/09/22 08:35:41;;;;;;;6.80;4.00;;;;;;;19.87;46.67;99321.19;5117231;28;20039;-93
2021/09/22 08:38:07;;;;;;;5.93;3.60;;;;;;;19.60;47.16;99320.84;5117109;28;20036;-93
2021/09/22 08:40:35;;;;;;;6.57;4.10;;;;;;;19.99;47.74;99303.41;5119432;28;20109;-92
2021/09/22 08:43:01;;;;;;;5.53;3.70;;;;;;;20.13;46.02;99316.13;5116860;28;20047;-96
2021/09/22 08:45:30;;;;;;;5.90;3.97;;;;;;;19.76;46.84;99323.63;5115746;28;20492;-94
2021/09/22 08:47:55;;;;;;;;;;;;;;;20.06;46.92;99324.56;5118611;28;20046;-93
2021/09/22 08:50:21;;;;;;;5.97;3.80;;;;;;;19.89;46.38;99321.97;5116302;28;20014;-94
2021/09/22 08:52:48;;;;;;;6.65;3.60;;;;;;;20.24;44.93;99306.44;5117769;28;20032;-94
2021/09/22 08:55:17;;;;;;;7.35;4.43;;;;;;;20.22;45.14;99324.56;5114425;28;20063;-94
2021/09/22 08:57:44;;;;;;;6.18;3.40;;;;;;;20.32;44.00;99316.81;5116707;28;20420;-94
2021/09/22 09:00:14;;;;;;;6.00;3.63;;;;;;;20.37;44.42;99308.44;5117610;28;20036;-95
2021/09/22 09:02:42;;;;;;;5.00;3.45;;;;;;;20.57;43.37;99320.75;5117774;28;20566;-94
2021/09/22 09:05:11;;;;;;;5.53;3.88;;;;;;;20.32;44.03;99306.00;5116086;28;20448;-93
2021/09/22 09:07:47;;;;;;;6.10;3.95;;;;;;;20.55;44.07;99304.63;5117042;28;20043;-95
2021/09/22 09:10:13;;;;;;;6.15;3.45;;;;;;;20.91;44.46;99306.13;5117008;28;20127;-95
2021/09/22 09:12:39;;;;;;;5.80;3.83;;;;;;;21.09;43.32;99298.69;5118926;28;20035;-92
2021/09/22 09:15:11;;;;;;;6.07;3.45;;;;;;;21.07;42.34;99300.63;5120581;27;20069;-95
2021/09/22 09:17:41;;;;;;;5.90;3.60;;;;;;;21.19;42.19;99304.38;5121990;27;20089;-95
2021/09/22 09:20:16;;;;;;;4.40;3.38;;;;;;;20.98;42.22;99301.19;5121695;28;20044;-94
2021/09/22 09:22:53;;;;;;;6.95;3.60;;;;;;;21.05;41.59;99303.41;5121945;28;20046;-95
2021/09/22 09:25:23;;;;;;;5.53;3.50;;;;;;;21.40;42.09;99307.59;5105379;28;20044;-94
2021/09/22 09:27:49;;;;;;;5.60;3.40;;;;;;;21.42;39.84;99311.97;5120442;27;20044;-92
2021/09/22 09:30:19;;;;;;;4.78;3.42;;;;;;;21.43;42.19;99302.03;5120679;28;20058;-95
2021/09/22 09:32:45;;;;;;;6.10;4.00;;;;;;;21.51;41.53;99310.53;5117355;28;20040;-95
2021/09/22 09:35:14;;;;;;;5.97;3.83;;;;;;;21.69;40.86;99316.63;5120381;28;20117;-94
2021/09/22 09:37:41;;;;;;;6.32;3.75;;;;;;;21.84;40.83;99306.59;5120859;28;20044;-94
2021/09/22 09:40:23;;;;;;;5.07;3.45;;;;;;;21.98;39.74;99311.16;5119669;28;20047;-96
2021/09/22 09:42:52;;;;;;;6.97;3.60;;;;;;;21.68;40.25;99309.44;5120581;28;20046;-95
2021/09/22 09:45:20;;;;;;;5.15;3.33;;;;;;;21.76;40.63;99317.09;5118797;28;20048;-90
2021/09/22 09:48:00;;;;;;;4.88;3.30;;;;;;;21.73;40.73;99285.69;5119099;28;20078;-95
2021/09/22 09:50:27;;;;;;;7.05;3.58;;;;;;;21.74;40.83;99300.94;5119464;28;20054;-93
2021/09/22 09:52:55;;;;;;;7.70;3.85;;;;;;;21.80;40.41;99278.88;5119830;28;20431;-94
2021/09/22 09:55:23;;;;;;;5.40;3.22;;;;;;;22.04;39.78;99292.66;5118744;28;20043;-94
2021/09/22 09:57:50;;;;;;;5.25;3.42;;;;;;;22.03;39.13;99292.75;5120751;28;20107;-96
2021/09/22 10:00:23;;;;;;;5.20;3.80;;;;;;;21.88;39.99;99281.06;5120019;28;20100;-95
2021/09/22 10:02:50;;;;;;;5.68;3.22;;;;;;;21.98;40.85;99294.91;5122708;28;20040;-95
2021/09/22 10:05:16;;;;;;;6.22;3.53;;;;;;;22.20;39.98;99306.03;5120273;28;20111;-94
2021/09/22 10:07:45;;;;;;;5.13;3.10;;;;;;;21.76;40.12;99279.19;5120209;28;20063;-96
2021/09/22 10:10:12;;;;;;;6.47;3.20;;;;;;;22.38;38.95;99294.97;5121767;28;20048;-94
2021/09/22 10:12:38;;;;;;;5.22;3.28;;;;;;;22.36;37.43;99278.84;5121446;28;20039;-94
2021/09/22 10:15:05;;;;;;;4.57;3.30;;;;;;;22.24;38.13;99274.25;5121136;28;20036;-94
2021/09/22 10:17:33;;;;;;;5.72;3.50;;;;;;;22.43;40.32;99279.28;5120676;28;20032;-94
2021/09/22 10:20:00;;;;;;;5.18;3.40;;;;;;;22.64;37.62;99288.69;5119537;28;20039;-93
2021/09/22 10:22:26;;;;;;;4.15;3.20;;;;;;;22.74;38.61;99272.63;5120468;28;20133;-94
2021/09/22 10:24:52;;;;;;;4.80;2.95;;;;;;;23.00;37.24;99280.78;5123949;28;20126;-94
2021/09/22 10:27:20;;;;;;;5.30;3.42;;;;;;;23.08;37.32;99267.59;5119543;28;20126;-94
2021/09/22 10:29:50;;;;;;;5.60;3.50;;;;;;;23.07;38.05;99261.28;5120548;28;20048;-95
2021/09/22 10:32:34;;;;;;;6.50;3.55;;;;;;;22.95;38.73;99260.28;5123259;28;20100;-94
2021/09/22 10:35:35;;;;;;;5.53;3.40;;;;;;;22.55;38.17;99260.34;5124140;28;20043;-95
2021/09/22 10:38:51;;;;;;;6.20;3.40;;;;;;;22.55;39.38;99260.34;5118111;28;20040;-95
2021/09/22 10:41:26;;;;;;;5.40;3.25;;;;;;;22.69;38.76;99247.69;5120410;28;20055;-94
2021/09/22 10:43:53;;;;;;;4.80;3.38;;;;;;;22.66;38.52;99245.16;5122064;28;20134;-96
2021/09/22 10:46:20;;;;;;;5.57;3.95;;;;;;;22.42;38.23;99253.16;5120005;28;20393;-95
2021/09/22 10:49:17;;;;;;;4.90;3.00;;;;;;;22.30;39.68;99246.75;5121483;28;20058;-95
2021/09/22 10:51:46;;;;;;;4.93;3.30;;;;;;;22.45;39.48;99226.72;5057951;28;20045;-94
2021/09/22 10:54:14;;;;;;;5.28;3.58;;;;;;;22.60;39.58;99218.47;5058548;28;20045;-95
2021/09/22 10:56:46;;;;;;;;;;;;;;;22.69;38.65;99250.41;5059717;28;20144;-96
2021/09/22 10:59:25;;;;;;;4.55;3.25;;;;;;;22.35;39.70;99215.63;5058324;28;19928;-95
2021/09/22 11:01:51;;;;;;;5.32;3.30;;;;;;;22.58;37.33;99236.72;5059166;28;20049;-93
2021/09/22 11:04:19;;;;;;;4.63;3.30;;;;;;;22.64;38.27;99215.47;5057345;28;20103;-94
2021/09/22 11:07:02;;;;;;;4.57;3.10;;;;;;;22.89;37.22;99236.31;5059494;28;20036;-93
2021/09/22 11:09:32;;;;;;;6.25;3.33;;;;;;;22.92;37.45;99213.50;5057650;28;20139;-94
2021/09/22 11:12:12;;;;;;;5.95;3.38;;;;;;;23.23;37.10;99239.38;5055839;28;20056;-93
2021/09/22 11:14:41;;;;;;;5.60;3.53;;;;;;;23.23;36.90;99220.38;5053983;28;20456;-92
2021/09/22 11:17:07;;;;;;;;;;;;;;;23.26;37.11;99230.13;5052045;28;20041;-94
2021/09/22 11:19:37;;;;;;;5.97;3.60;;;;;;;22.70;38.75;99215.03;5056480;28;19917;-93
2021/09/22 11:22:05;;;;;;;4.78;3.33;;;;;;;22.97;37.79;99195.09;5039742;28;20045;-95
2021/09/22 11:24:33;;;;;;;5.90;3.22;;;;;;;23.37;38.10;99222.09;5055544;28;20049;-93
2021/09/22 11:27:03;;;;;;;4.50;3.15;;;;;;;22.87;37.34;99215.69;5118036;28;20097;-94
2021/09/22 11:29:34;;;;;;;5.47;3.20;;;;;;;23.24;37.04;99222.09;5120065;28;20039;-94
2021/09/22 11:32:02;;;;;;;4.85;3.50;;;;;;;23.29;36.88;99198.22;5121723;28;20107;-96
2021/09/22 11:34:29;;;;;;;5.68;3.55;;;;;;;23.35;36.14;99194.19;5119605;28;20043;-92
2021/09/22 11:37:11;;;;;;;4.30;3.22;;;;;;;23.25;36.41;99203.97;5118034;28;20040;-93
2021/09/22 11:39:41;;;;;;;6.13;3.50;;;;;;;23.16;37.90;99217.25;5127069;27;20048;-93
2021/09/22 11:42:09;;;;;;;4.63;3.22;;;;;;;22.95;38.53;99219.59;5117546;27;20105;-93